Time;durP1;ratioP1;P1;durP2;ratioP2;P2;SDS_P1;SDS_P2;PMS_P1;PMS_P2;Temp;Humidity;BMP_temperature;BMP_pressure;BME280_temperature;BME280_humidity;BME280_pressure;Samples;Min_cycle;Max_cycle;Signal;HPM_P1;HPM_P2
2021/03/07 00:03:32;;;;;;;;;;;;;;;;;;20976447;28;1168;-44
2021/03/07 00:14:07;;;;;;;;;;;;;;;;;;20886902;28;1981;-40
2021/03/07 00:24:43;;;;;;;;;;;;;;;;;;20887564;28;1113;-42
2021/03/07 00:35:04;;;;;;;;;;;;;;;;;;20898315;28;1898;-42
2021/03/07 00:45:38;;;;;;;;;;;;;;;;;;20870956;28;10689;-42
2021/03/07 00:56:13;;;;;;;;;;;;;;;;;;20868656;28;10489;-41
2021/03/07 01:06:34;;;;;;;;;;;;;;;;;;20878815;28;11129;-41
2021/03/07 01:16:54;;;;;;;;;;;;;;;;;;20893502;28;1902;-41
2021/03/07 01:27:29;;;;;;;;;;;;;;;;;;20895240;28;1264;-41
2021/03/07 01:37:50;;;;;;;;;;;;;;;;;;20891385;28;1997;-41
2021/03/07 01:48:13;;;;;;;;;;;;;;;;;;20877314;28;1180;-41
2021/03/07 01:58:35;;;;;;;;;;;;;;;;;;20890761;28;1993;-41
2021/03/07 02:08:55;;;;;;;;;;;;;;;;;;20928683;28;1443;-41
2021/03/07 02:19:17;;;;;;;;;;;;;;;;;;20971773;28;1898;-41
2021/03/07 02:29:38;;;;;;;;;;;;;;;;;;20956806;28;1230;-41
2021/03/07 02:39:59;;;;;;;;;;;;;;;;;;20969770;28;1914;-40
2021/03/07 02:50:35;;;;;;;;;;;;;;;;;;20968462;28;1058;-41
2021/03/07 03:00:58;;;;;;;;;;;;;;;;;;20954367;28;1669;-41
2021/03/07 03:11:36;;;;;;;;;;;;;;;;;;20897800;28;1977;-40
2021/03/07 03:21:57;;;;;;;;;;;;;;;;;;20884515;28;1378;-41
2021/03/07 03:32:18;;;;;;;;;;;;;;;;;;20885908;28;1973;-41
2021/03/07 03:42:56;;;;;;;;;;;;;;;;;;20897641;28;1047;-40
2021/03/07 03:53:19;;;;;;;;;;;;;;;;;;20882232;28;1897;-41
2021/03/07 04:03:41;;;;;;;;;;;;;;;;;;20894425;28;1601;-41
2021/03/07 04:14:01;;;;;;;;;;;;;;;;;;20979567;28;1898;-41
2021/03/07 04:24:22;;;;;;;;;;;;;;;;;;20983118;28;1021;-41
2021/03/07 04:34:56;;;;;;;;;;;;;;;;;;20982450;28;1975;-41
2021/03/07 04:45:18;;;;;;;;;;;;;;;;;;20936947;28;1069;-41
2021/03/07 04:55:52;;;;;;;;;;;;;;;;;;20980737;28;1977;-41
2021/03/07 05:06:14;;;;;;;;;;;;;;;;;;20948949;28;1584;-41
2021/03/07 05:16:34;;;;;;;;;;;;;;;;;;20892937;28;1899;-40
2021/03/07 05:27:10;;;;;;;;;;;;;;;;;;20902845;28;1262;-41
2021/03/07 05:37:44;;;;;;;;;;;;;;;;;;20894648;28;1906;-41
2021/03/07 05:48:19;;;;;;;;;;;;;;;;;;20892002;28;1136;-40
2021/03/07 05:58:55;;;;;;;;;;;;;;;;;;20891723;28;1894;-41
2021/03/07 06:09:30;;;;;;;;;;;;;;;;;;20932968;28;1371;-41
2021/03/07 06:19:55;;;;;;;;;;;;;;;;;;20986034;28;2001;-41
2021/03/07 06:30:30;;;;;;;;;;;;;;;;;;20970757;28;1240;-41
2021/03/07 06:40:51;;;;;;;;;;;;;;;;;;20972432;28;1973;-41
2021/03/07 06:51:27;;;;;;;;;;;;;;;;;;20941502;28;1902;-41
2021/03/07 07:02:09;;;;;;;;;;;;;;;;;;20884922;28;1119;-42
2021/03/07 07:12:44;;;;;;;;;;;;;;;;;;20938832;28;1906;-41
2021/03/07 07:23:19;;;;;;;;;;;;;;;;;;20964625;28;1214;-41
2021/03/07 07:33:57;;;;;;;;;;;;;;;;;;20937201;28;1910;-41
2021/03/07 07:44:32;;;;;;;;;;;;;;;;;;20944886;28;1027;-41
2021/03/07 07:55:14;;;;;;;;;;;;;;;;;;20588028;28;9999923;-41
2021/03/07 08:05:37;;;;;;;;;;;;;;;;;;20891107;28;1255;-41
2021/03/07 08:15:58;;;;;;;;;;;;;;;;;;20856477;28;1898;-42
2021/03/07 08:26:42;;;;;;;;;;;;;;;;;;20872615;28;984;-41
2021/03/07 08:37:17;;;;;;;;;;;;;;;;;;20877273;28;1979;-41
2021/03/07 08:47:57;;;;;;;;;;;;;;;;;;20888400;28;1203;-41
2021/03/07 08:58:33;;;;;;;;;;;;;;;;;;20874321;28;2606;-41
2021/03/07 09:09:18;;;;;;;;;;;;;;;;;;20891014;28;1305;-42
2021/03/07 09:19:39;;;;;;;;;;;;;;;;;;20967575;28;1997;-41
2021/03/07 09:30:03;;;;;;;;;;;;;;;;;;20950001;28;1120;-41
2021/03/07 09:40:24;;;;;;;;;;;;;;;;;;20896302;28;2150;-41
2021/03/07 09:51:00;;;;;;;;;;;;;;;;;;20882839;28;1262;-41
2021/03/07 10:01:21;;;;;;;;;;;;;;;;;;20865357;28;2347;-42
2021/03/07 10:11:53;;;;;;;;;;;;;;;;;;20939649;28;1902;-36
2021/03/07 10:22:34;;;;;;;;;;;;;;;;;;20958538;28;973;-36
2021/03/07 10:33:12;;;;;;;;;;;;;;;;;;20942411;28;1971;-34
2021/03/07 10:43:43;;;;;;;;;;;;;;;;;;20857288;28;1244;-34
2021/03/07 10:54:17;;;;;;;;;;;;;;;;;;20970695;28;1973;-34
2021/03/07 11:04:52;;;;;;;;;;;;;;;;;;20938912;28;1517;-33
2021/03/07 11:15:13;;;;;;;;;;;;;;;;;;20909413;28;1898;-34
2021/03/07 11:25:48;;;;;;;;;;;;;;;;;;20831661;28;1371;-35
2021/03/07 11:36:24;;;;;;;;;;;;;;;;;;20833362;28;1981;-35
2021/03/07 11:46:44;;;;;;;;;;;;;;;;;;20832956;28;1025;-35
2021/03/07 11:57:20;;;;;;;;;;;;;;;;;;20786631;28;1985;-35
2021/03/07 12:07:41;;;;;;;;;;;;;;;;;;20846150;28;1238;-35
2021/03/07 12:18:16;;;;;;;;;;;;;;;;;;20868547;28;1894;-34
2021/03/07 12:28:51;;;;;;;;;;;;;;;;;;20928660;28;1214;-35
2021/03/07 12:39:26;;;;;;;;;;;;;;;;;;20930164;28;1969;-35
2021/03/07 12:49:46;;;;;;;;;;;;;;;;;;20979334;28;1078;-35
2021/03/07 13:00:07;;;;;;;;;;;;;;;;;;20980482;28;1902;-35
2021/03/07 13:10:27;;;;;;;;;;;;;;;;;;20930896;28;1425;-35
2021/03/07 13:20:51;;;;;;;;;;;;;;;;;;20880509;28;1985;-35
2021/03/07 13:31:27;;;;;;;;;;;;;;;;;;20892299;28;1961;-35
2021/03/07 13:41:47;;;;;;;;;;;;;;;;;;20552107;28;10000200;-35
2021/03/07 13:52:08;;;;;;;;;;;;;;;;;;20829027;28;1984;-35
2021/03/07 14:02:42;;;;;;;;;;;;;;;;;;20881082;28;1219;-35
2021/03/07 14:13:18;;;;;;;;;;;;;;;;;;20951869;28;1878;-35
2021/03/07 14:23:52;;;;;;;;;;;;;;;;;;20963697;28;1158;-35
2021/03/07 14:34:27;;;;;;;;;;;;;;;;;;20972452;28;1977;-35
2021/03/07 14:45:03;;;;;;;;;;;;;;;;;;20913866;28;1521;-35
2021/03/07 14:55:24;;;;;;;;;;;;;;;;;;20899862;28;2089;-34
2021/03/07 15:05:59;;;;;;;;;;;;;;;;;;20946445;28;1174;-34
2021/03/07 15:16:20;;;;;;;;;;;;;;;;;;20908699;28;1913;-34
2021/03/07 15:26:46;;;;;;;;;;;;;;;;;;20949511;28;1022;-35
2021/03/07 15:37:21;;;;;;;;;;;;;;;;;;20894851;28;1978;-34
2021/03/07 15:47:58;;;;;;;;;;;;;;;;;;20870832;28;2402;-35
2021/03/07 15:58:19;;;;;;;;;;;;;;;;;;20833372;28;1926;-34
2021/03/07 16:08:57;;;;;;;;;;;;;;;;;;20840707;28;1262;-34
2021/03/07 16:19:18;;;;;;;;;;;;;;;;;;20900121;28;1996;-34
2021/03/07 16:29:53;;;;;;;;;;;;;;;;;;20913143;28;1212;-34
2021/03/07 16:40:14;;;;;;;;;;;;;;;;;;20947617;28;1999;-34
2021/03/07 16:50:49;;;;;;;;;;;;;;;;;;20923529;28;2759;-33
2021/03/07 17:01:24;;;;;;;;;;;;;;;;;;20925022;28;1906;-34
2021/03/07 17:11:59;;;;;;;;;;;;;;;;;;20902516;28;1894;-34
2021/03/07 17:22:19;;;;;;;;;;;;;;;;;;20889788;28;1258;-34
2021/03/07 17:32:40;;;;;;;;;;;;;;;;;;20909853;28;1918;-33
2021/03/07 17:43:15;;;;;;;;;;;;;;;;;;20910603;28;1262;-54
2021/03/07 17:53:36;;;;;;;;;;;;;;;;;;20864674;28;2473;-56
2021/03/07 18:04:11;;;;;;;;;;;;;;;;;;20870867;28;2004;-35
2021/03/07 18:14:46;;;;;;;;;;;;;;;;;;20813095;28;1985;-36
2021/03/07 18:25:07;;;;;;;;;;;;;;;;;;20894041;28;1210;-35
2021/03/07 18:35:43;;;;;;;;;;;;;;;;;;20850634;28;1910;-35
2021/03/07 18:46:04;;;;;;;;;;;;;;;;;;20876094;28;986;-35
2021/03/07 18:56:26;;;;;;;;;;;;;;;;;;20894076;28;2391;-35
2021/03/07 19:06:47;;;;;;;;;;;;;;;;;;20904141;28;1128;-34
2021/03/07 19:17:11;;;;;;;;;;;;;;;;;;20900488;28;1987;-34
2021/03/07 19:27:33;;;;;;;;;;;;;;;;;;20849465;28;1482;-36
2021/03/07 19:38:02;;;;;;;;;;;;;;;;;;20907472;28;2016;-33
2021/03/07 19:48:39;;;;;;;;;;;;;;;;;;20937544;28;1491;-34
2021/03/07 19:59:14;;;;;;;;;;;;;;;;;;20964843;28;1989;-42
2021/03/07 20:10:27;;;;;;;;;;;;;;;;;;20810411;28;1263;-40
2021/03/07 20:21:12;;;;;;;;;;;;;;;;;;20963776;28;1898;-42
2021/03/07 20:31:33;;;;;;;;;;;;;;;;;;20938688;28;1776;-38
2021/03/07 20:42:09;;;;;;;;;;;;;;;;;;20958396;28;1067;-41
2021/03/07 20:52:33;;;;;;;;;;;;;;;;;;20952753;28;1975;-40
2021/03/07 21:03:08;;;;;;;;;;;;;;;;;;20901042;28;1119;-37
2021/03/07 21:13:30;;;;;;;;;;;;;;;;;;20975404;28;1973;-36
2021/03/07 21:23:51;;;;;;;;;;;;;;;;;;20979186;28;1030;-37
2021/03/07 21:34:12;;;;;;;;;;;;;;;;;;20977929;28;1999;-40
2021/03/07 21:44:47;;;;;;;;;;;;;;;;;;20926679;28;1094;-38
2021/03/07 21:55:26;;;;;;;;;;;;;;;;;;20890726;28;1980;-35
2021/03/07 22:06:01;;;;;;;;;;;;;;;;;;20902724;28;1258;-45
2021/03/07 22:16:36;;;;;;;;;;;;;;;;;;20898508;28;1906;-42
2021/03/07 22:26:57;;;;;;;;;;;;;;;;;;20887380;28;2050;-45
2021/03/07 22:37:32;;;;;;;;;;;;;;;;;;20891577;28;1890;-42
2021/03/07 22:48:07;;;;;;;;;;;;;;;;;;20892528;28;1175;-42
2021/03/07 22:58:27;;;;;;;;;;;;;;;;;;20900987;28;1899;-42
2021/03/07 23:08:48;;;;;;;;;;;;;;;;;;20887162;28;1083;-41
2021/03/07 23:19:09;;;;;;;;;;;;;;;;;;20887266;28;1983;-42
2021/03/07 23:29:30;;;;;;;;;;;;;;;;;;20870462;28;1462;-40
2021/03/07 23:39:51;;;;;;;;;;;;;;;;;;20854974;28;1902;-43
2021/03/07 23:50:13;;;;;;;;;;;;;;;;;;20882434;28;1393;-41
